Time;durP1;ratioP1;P1;durP2;ratioP2;P2;SDS_P1;SDS_P2;PMS_P1;PMS_P2;Temp;Humidity;BMP_temperature;BMP_pressure;BME280_temperature;BME280_humidity;BME280_pressure;Samples;Min_cycle;Max_cycle;Signal;HPM_P1;HPM_P2
2022/02/10 00:06:11;;;;;;;59.90;25.88;;;8.60;99.90;;;;;;5010149;28;20046;-87
2022/02/10 00:19:44;;;;;;;55.28;25.73;;;8.60;99.90;;;;;;5018386;28;20081;-87
2022/02/10 00:22:17;;;;;;;54.92;25.30;;;8.60;99.90;;;;;;5027552;28;20038;-87
2022/02/10 00:35:48;;;;;;;59.72;26.15;;;8.60;99.90;;;;;;4995697;28;20497;-87
2022/02/10 00:38:16;;;;;;;63.92;27.38;;;8.60;99.90;;;;;;5009618;28;20489;-87
2022/02/10 00:40:41;;;;;;;61.13;26.58;;;8.60;99.90;;;;;;4998328;28;20034;-87
2022/02/10 00:43:07;;;;;;;69.28;27.27;;;8.60;99.90;;;;;;5013259;28;20029;-87
2022/02/10 00:45:34;;;;;;;63.30;27.05;;;8.60;99.90;;;;;;5012978;28;20037;-87
2022/02/10 00:48:04;;;;;;;57.70;27.15;;;8.60;99.90;;;;;;5012690;28;20040;-87
2022/02/10 00:50:31;;;;;;;77.93;28.52;;;8.60;99.90;;;;;;5025538;28;20080;-87
2022/02/10 00:53:07;;;;;;;63.92;27.60;;;8.60;99.90;;;;;;4993919;28;20414;-87
2022/02/10 00:55:35;;;;;;;66.97;28.15;;;8.60;99.90;;;;;;4994502;28;20046;-87
2022/02/10 00:58:07;;;;;;;65.30;28.10;;;8.70;99.90;;;;;;4993041;28;20073;-87
2022/02/10 01:30:18;;;;;;;70.88;29.33;;;8.60;99.90;;;;;;5014680;28;20042;-87
2022/02/10 01:32:46;;;;;;;63.13;29.25;;;8.60;99.90;;;;;;4996981;28;20048;-87
2022/02/10 01:35:16;;;;;;;68.35;29.05;;;8.60;99.90;;;;;;5014140;28;20046;-87
2022/02/10 01:37:42;;;;;;;64.53;28.83;;;8.60;99.90;;;;;;5012766;28;20045;-87
2022/02/10 02:04:44;;;;;;;80.28;30.90;;;8.60;99.90;;;;;;5011846;28;20041;-87
2022/02/10 02:07:10;;;;;;;72.35;29.45;;;8.60;99.90;;;;;;5007562;28;20037;-87
2022/02/10 02:09:36;;;;;;;67.35;29.92;;;8.50;99.90;;;;;;5015760;28;20102;-87
2022/02/10 02:12:06;;;;;;;74.45;31.25;;;8.50;99.90;;;;;;5014588;28;20411;-87
2022/02/10 02:14:32;;;;;;;79.63;32.55;;;8.50;99.90;;;;;;4990281;28;20053;-87
2022/02/10 02:17:02;;;;;;;73.60;32.00;;;8.60;99.90;;;;;;4988473;28;20049;-87
2022/02/10 02:19:29;;;;;;;73.60;30.88;;;8.50;99.90;;;;;;5029995;28;20069;-88
2022/02/10 02:22:08;;;;;;;83.10;33.35;;;8.50;99.90;;;;;;5011334;28;20049;-87
2022/02/10 02:24:35;;;;;;;75.18;32.65;;;8.50;99.90;;;;;;4995181;28;20045;-87
2022/02/10 02:27:04;;;;;;;68.35;31.88;;;8.50;99.90;;;;;;5005268;28;20395;-87
2022/02/10 02:29:36;;;;;;;84.72;33.33;;;8.50;99.90;;;;;;5015178;28;20041;-87
2022/02/10 02:32:09;;;;;;;;;;;8.50;99.90;;;;;;5015536;28;20068;-87
2022/02/10 03:06:37;;;;;;;82.85;38.17;;;8.50;99.90;;;;;;5016539;28;20480;-87
2022/02/10 03:09:08;;;;;;;76.13;37.85;;;8.50;99.90;;;;;;5014142;28;20087;-87
2022/02/10 03:11:37;;;;;;;80.18;37.65;;;8.50;99.90;;;;;;5014317;28;20038;-87
2022/02/10 03:14:10;;;;;;;83.95;38.47;;;8.50;99.90;;;;;;5030295;28;20506;-87
2022/02/10 03:17:08;;;;;;;82.70;38.97;;;8.50;99.90;;;;;;5029635;28;20045;-87
2022/02/10 04:08:30;;;;;;;7.53;4.18;;;8.10;99.90;;;;;;5028586;28;20451;-87
2022/02/10 04:13:53;;;;;;;4.82;2.92;;;8.10;99.90;;;;;;5009438;28;20042;-87
2022/02/10 04:16:24;;;;;;;4.55;2.67;;;8.10;99.90;;;;;;5011192;28;20065;-87
2022/02/10 04:21:42;;;;;;;6.78;2.78;;;7.90;99.90;;;;;;5029537;28;20041;-87
2022/02/10 04:42:59;;;;;;;8.18;3.35;;;7.50;99.90;;;;;;5029025;28;20115;-86
2022/02/10 05:17:00;;;;;;;10.00;4.80;;;7.30;99.90;;;;;;5013636;28;20691;-86
2022/02/10 05:19:58;;;;;;;10.77;4.63;;;7.30;99.90;;;;;;5012553;28;20252;-86
2022/02/10 05:33:09;;;;;;;9.43;4.80;;;7.30;99.90;;;;;;5009405;28;20050;-86
2022/02/10 05:35:48;;;;;;;9.35;5.20;;;7.30;99.90;;;;;;5008777;28;20542;-86
2022/02/10 05:38:30;;;;;;;10.55;4.93;;;7.30;99.90;;;;;;5007008;28;20416;-86
2022/02/10 05:43:42;;;;;;;9.23;5.10;;;7.30;99.90;;;;;;5024353;28;20049;-85
2022/02/10 06:58:26;;;;;;;10.95;6.00;;;7.10;99.90;;;;;;4992101;28;20476;-86
2022/02/10 07:06:23;;;;;;;11.80;5.05;;;7.10;99.90;;;;;;4991938;28;20148;-85
2022/02/10 07:09:05;;;;;;;10.68;4.88;;;7.00;99.90;;;;;;4991829;28;20088;-84
2022/02/10 07:43:33;;;;;;;13.77;5.80;;;7.00;99.90;;;;;;5010605;28;20128;-84
2022/02/10 07:57:39;;;;;;;12.85;5.20;;;6.90;99.90;;;;;;5014463;28;20068;-84
2022/02/10 08:00:42;;;;;;;10.70;4.27;;;6.90;99.90;;;;;;4984083;28;20092;-84
2022/02/10 08:29:12;;;;;;;14.60;4.97;;;7.00;99.90;;;;;;5009484;28;20100;-84
2022/02/10 08:55:06;;;;;;;12.68;4.45;;;7.20;99.90;;;;;;5004482;28;20041;-83
2022/02/10 08:58:16;;;;;;;11.65;4.40;;;7.20;99.90;;;;;;4993802;28;20035;-85
2022/02/10 09:19:37;;;;;;;12.00;4.50;;;7.40;99.90;;;;;;5007447;28;20151;-88
2022/02/10 09:57:41;;;;;;;9.63;3.47;;;7.50;99.90;;;;;;5030067;28;20051;-49
2022/02/10 10:00:30;;;;;;;11.00;3.30;;;7.50;99.90;;;;;;5027056;28;20327;-48
2022/02/10 10:03:12;;;;;;;9.52;3.63;;;7.50;99.90;;;;;;5026758;28;20046;-48
2022/02/10 10:05:58;;;;;;;10.40;3.30;;;7.50;99.90;;;;;;5027197;28;20088;-48
2022/02/10 10:08:56;;;;;;;9.10;3.42;;;7.60;99.90;;;;;;5026318;28;20064;-49
2022/02/10 10:14:29;;;;;;;11.55;3.90;;;7.60;99.90;;;;;;5024810;28;20482;-48
2022/02/10 10:19:52;;;;;;;8.93;3.55;;;7.70;99.90;;;;;;5021527;28;20046;-48
2022/02/10 10:55:52;;;;;;;7.88;2.30;;;8.00;99.90;;;;;;5021331;28;20038;-53
2022/02/10 10:58:32;;;;;;;9.30;2.10;;;8.00;99.90;;;;;;5013157;28;20425;-52
2022/02/10 11:39:19;;;;;;;11.38;1.80;;;8.20;99.90;;;;;;5017369;28;20050;-52
2022/02/10 11:42:13;;;;;;;10.52;2.13;;;8.20;99.90;;;;;;5029952;28;20045;-48
2022/02/10 11:59:57;;;;;;;11.18;2.35;;;8.10;99.90;;;;;;5032059;28;20080;-48
2022/02/10 12:30:47;;;;;;;13.13;2.38;;;8.20;99.90;;;;;;5018341;28;20114;-51
2022/02/10 12:34:15;;;;;;;14.27;2.42;;;8.20;99.90;;;;;;5018253;28;20493;-51
2022/02/10 12:39:03;;;;;;;14.10;2.42;;;8.20;99.90;;;;;;5024558;28;20478;-51
2022/02/10 13:03:04;;;;;;;10.82;2.08;;;8.20;99.90;;;;;;5026682;28;20184;-50
2022/02/10 13:23:20;;;;;;;7.28;2.00;;;8.10;99.90;;;;;;5031757;28;20540;-52
2022/02/10 13:26:23;;;;;;;12.05;2.28;;;8.10;99.90;;;;;;5024508;28;20512;-52
2022/02/10 13:29:17;;;;;;;13.05;2.38;;;8.10;99.90;;;;;;5022656;28;20409;-52
2022/02/10 14:15:52;;;;;;;13.65;3.15;;;7.80;99.90;;;;;;5014951;28;20050;-52
2022/02/10 14:26:00;;;;;;;12.57;3.03;;;7.90;99.90;;;;;;5029398;28;20060;-52
2022/02/10 14:28:26;;;;;;;12.73;2.60;;;7.80;99.90;;;;;;5029263;28;20033;-53
2022/02/10 14:30:54;;;;;;;14.07;3.72;;;7.80;99.90;;;;;;5029079;28;20560;-52
2022/02/10 14:33:28;;;;;;;12.80;3.30;;;7.70;99.90;;;;;;5023943;28;20139;-52
2022/02/10 14:36:00;;;;;;;13.15;3.72;;;7.70;99.90;;;;;;5027121;28;20045;-53
2022/02/10 15:16:44;;;;;;;12.13;3.05;;;7.60;99.90;;;;;;5020325;28;20048;-53
2022/02/10 15:28:49;;;;;;;13.73;2.50;;;7.50;99.90;;;;;;5014511;28;20129;-51
2022/02/10 15:31:40;;;;;;;9.68;2.50;;;7.40;99.90;;;;;;5020221;28;20049;-51
2022/02/10 15:33:33;;;;;;;10.20;2.75;;;7.30;99.90;;;;;;5027677;28;20041;-52
2022/02/10 15:52:06;;;;;;;12.32;2.83;;;7.30;99.90;;;;;;5023251;28;20283;-48
2022/02/10 15:54:48;;;;;;;16.27;3.30;;;7.20;99.90;;;;;;5024373;28;20490;-48
2022/02/10 16:11:00;;;;;;;11.60;2.53;;;7.00;99.90;;;;;;5020501;28;20112;-49
2022/02/10 16:18:44;;;;;;;13.15;2.80;;;6.80;99.90;;;;;;5008926;28;20042;-52
2022/02/10 16:21:12;;;;;;;14.93;2.55;;;6.80;99.90;;;;;;5007541;28;20034;-48
2022/02/10 16:23:37;;;;;;;12.73;2.72;;;6.80;99.90;;;;;;5015751;28;20128;-52
2022/02/10 16:26:16;;;;;;;11.23;2.35;;;6.80;99.90;;;;;;5000194;28;20132;-50
2022/02/10 16:28:44;;;;;;;14.48;2.80;;;6.70;99.90;;;;;;5017833;28;20041;-50
2022/02/10 16:31:12;;;;;;;13.45;3.42;;;6.70;99.90;;;;;;5002139;28;20089;-51
2022/02/10 16:33:41;;;;;;;13.40;2.75;;;6.70;99.90;;;;;;5008687;28;20044;-50
2022/02/10 16:36:09;;;;;;;15.30;2.83;;;6.60;99.90;;;;;;5008512;28;20393;-49
2022/02/10 16:38:34;;;;;;;10.50;2.95;;;6.60;99.90;;;;;;5011939;28;20034;-50
2022/02/10 16:41:00;;;;;;;15.90;3.15;;;6.60;99.90;;;;;;5016700;28;20391;-51
2022/02/10 16:43:26;;;;;;;19.08;3.03;;;6.60;99.90;;;;;;5008398;28;20121;-48
2022/02/10 16:45:54;;;;;;;13.35;2.65;;;6.60;99.90;;;;;;5003657;28;20494;-49
2022/02/10 16:48:19;;;;;;;12.60;2.42;;;6.60;99.90;;;;;;5010152;28;20074;-48
2022/02/10 16:50:45;;;;;;;9.50;2.33;;;6.50;99.90;;;;;;5018667;28;20122;-47
2022/02/10 16:53:15;;;;;;;12.80;3.00;;;6.50;99.90;;;;;;5017737;28;20037;-48
2022/02/10 16:58:39;;;;;;;15.27;3.05;;;6.50;99.90;;;;;;5008578;28;20038;-48
2022/02/10 17:04:03;;;;;;;16.63;3.35;;;6.40;99.90;;;;;;5011611;28;20130;-47
2022/02/10 17:20:28;;;;;;;10.70;2.78;;;6.30;99.90;;;;;;4995374;28;20128;-48
2022/02/10 17:25:41;;;;;;;12.32;2.38;;;6.30;99.90;;;;;;5006815;28;20108;-51
2022/02/10 17:28:09;;;;;;;11.93;2.55;;;6.30;99.90;;;;;;5009822;28;20043;-51
2022/02/10 17:33:22;;;;;;;12.43;2.55;;;6.20;99.90;;;;;;5006763;28;20062;-49
2022/02/10 17:41:44;;;;;;;15.20;2.97;;;6.10;99.90;;;;;;5010966;28;20056;-51
2022/02/10 17:51:24;;;;;;;12.40;3.92;;;6.10;99.90;;;;;;5014314;28;20042;-51
2022/02/10 17:52:27;;;;;;;14.50;3.50;;;6.10;99.90;;;;;;5012837;28;20076;-47
2022/02/10 17:54:53;;;;;;;16.77;3.47;;;6.00;99.90;;;;;;5014632;28;20061;-49
2022/02/10 17:57:19;;;;;;;15.52;3.25;;;6.10;99.90;;;;;;5012722;28;20069;-49
2022/02/10 17:59:45;;;;;;;17.88;2.92;;;6.00;99.90;;;;;;5008350;28;20038;-50
2022/02/10 18:02:12;;;;;;;17.20;3.75;;;6.00;99.90;;;;;;5002875;28;20045;-50
2022/02/10 18:04:37;;;;;;;11.93;3.85;;;6.00;99.90;;;;;;5002151;28;20038;-50
2022/02/10 18:07:04;;;;;;;14.80;3.60;;;6.00;99.90;;;;;;5008215;28;20459;-47
2022/02/10 18:14:48;;;;;;;14.90;4.10;;;5.90;99.90;;;;;;5010111;28;20260;-47
2022/02/10 18:17:27;;;;;;;13.48;3.30;;;5.90;99.90;;;;;;5006093;28;20572;-49
2022/02/10 18:20:01;;;;;;;17.27;3.60;;;5.90;99.90;;;;;;5008936;28;20044;-48
2022/02/10 18:25:12;;;;;;;16.60;2.80;;;5.90;99.90;;;;;;5009319;28;20695;-51
2022/02/10 18:30:25;;;;;;;12.60;2.30;;;5.80;99.90;;;;;;5010035;28;20115;-47
2022/02/10 19:05:48;;;;;;;10.18;2.30;;;5.60;99.90;;;;;;4949637;28;20030;-50
2022/02/10 19:08:43;;;;;;;11.98;2.00;;;5.60;99.90;;;;;;4992982;28;20042;-50
2022/02/10 19:11:09;;;;;;;8.35;2.20;;;5.60;99.90;;;;;;4990861;28;20498;-49
2022/02/10 19:13:35;;;;;;;11.73;2.60;;;5.60;99.90;;;;;;5007572;28;20057;-47
2022/02/10 19:16:01;;;;;;;13.10;2.55;;;5.60;99.90;;;;;;5010162;28;20486;-51
2022/02/10 19:18:26;;;;;;;17.75;3.08;;;5.60;99.90;;;;;;5011133;28;20036;-51
2022/02/10 19:20:52;;;;;;;13.40;2.85;;;5.50;99.90;;;;;;5012146;28;20556;-47
2022/02/10 19:23:17;;;;;;;13.77;2.60;;;5.50;99.90;;;;;;5006835;28;20041;-47
2022/02/10 19:25:43;;;;;;;13.73;2.53;;;5.50;99.90;;;;;;5009326;28;20414;-52
2022/02/10 19:28:11;;;;;;;14.20;2.53;;;5.50;99.90;;;;;;5003258;28;20030;-50
2022/02/10 19:30:39;;;;;;;10.73;2.58;;;5.50;99.90;;;;;;5011754;28;20046;-50
2022/02/10 19:33:10;;;;;;;12.23;2.83;;;5.50;99.90;;;;;;5011445;28;20029;-51
2022/02/10 19:35:43;;;;;;;16.73;2.80;;;5.40;99.90;;;;;;5010627;28;20077;-47
2022/02/10 19:38:10;;;;;;;16.83;3.03;;;5.50;99.90;;;;;;5011597;28;20034;-47
2022/02/10 19:40:39;;;;;;;16.08;4.13;;;5.40;99.90;;;;;;5010041;28;20041;-48
2022/02/10 19:43:05;;;;;;;13.32;2.70;;;5.40;99.90;;;;;;5001161;28;20617;-47
2022/02/10 19:45:31;;;;;;;15.20;2.92;;;5.50;99.90;;;;;;4996351;28;20038;-48
2022/02/10 19:47:57;;;;;;;16.17;2.60;;;5.40;99.90;;;;;;5011223;28;20045;-47
2022/02/10 19:50:27;;;;;;;16.35;2.70;;;5.40;99.90;;;;;;5011104;28;20064;-51
2022/02/10 19:52:56;;;;;;;11.55;2.42;;;5.40;99.90;;;;;;5002067;28;20056;-50
2022/02/10 19:55:24;;;;;;;9.75;2.30;;;5.50;99.90;;;;;;4997800;28;20088;-49
2022/02/10 19:57:53;;;;;;;11.50;2.63;;;5.40;99.90;;;;;;5001485;28;20060;-53
2022/02/10 20:00:24;;;;;;;10.88;2.65;;;5.40;99.90;;;;;;5009007;28;20034;-52
2022/02/10 20:02:50;;;;;;;10.32;2.95;;;5.40;99.90;;;;;;4990249;28;20100;-53
2022/02/10 20:05:21;;;;;;;14.38;2.45;;;5.40;99.90;;;;;;5004483;28;20037;-52
2022/02/10 20:07:51;;;;;;;13.73;2.33;;;5.40;99.90;;;;;;4999359;28;20046;-52
2022/02/10 20:10:17;;;;;;;11.93;2.70;;;5.40;99.90;;;;;;4997439;28;20033;-50
2022/02/10 20:12:42;;;;;;;16.38;2.58;;;5.40;99.90;;;;;;5004113;28;20091;-51
2022/02/10 20:15:10;;;;;;;14.90;3.30;;;5.40;99.90;;;;;;4994901;28;20084;-52
2022/02/10 20:17:36;;;;;;;14.52;3.00;;;5.30;99.90;;;;;;5006392;28;20033;-52
2022/02/10 20:20:04;;;;;;;11.60;2.75;;;5.30;99.90;;;;;;4988196;28;20960;-52
2022/02/10 20:22:35;;;;;;;11.88;2.38;;;5.30;99.90;;;;;;4999389;28;20037;-52
2022/02/10 20:25:02;;;;;;;13.15;3.10;;;5.30;99.90;;;;;;5001804;28;20038;-50
2022/02/10 20:27:27;;;;;;;13.32;2.70;;;5.30;99.90;;;;;;4996427;28;20044;-52
2022/02/10 20:29:54;;;;;;;15.32;3.03;;;5.30;99.90;;;;;;4997922;28;20136;-50
2022/02/10 20:32:19;;;;;;;9.93;2.55;;;5.20;99.90;;;;;;4999759;28;20432;-49
2022/02/10 20:34:45;;;;;;;20.23;3.08;;;5.20;99.90;;;;;;5006039;28;20497;-49
2022/02/10 20:37:12;;;;;;;9.25;3.00;;;5.20;99.90;;;;;;4991944;28;20093;-54
2022/02/10 20:39:37;;;;;;;18.90;4.32;;;5.20;99.90;;;;;;4996866;28;20387;-49
2022/02/10 20:42:07;;;;;;;12.38;3.40;;;5.10;99.90;;;;;;4995473;28;20112;-50
2022/02/10 20:44:34;;;;;;;11.32;2.65;;;5.10;99.90;;;;;;4995293;28;20034;-51
2022/02/10 20:47:00;;;;;;;17.30;3.60;;;5.00;99.90;;;;;;5004473;28;20050;-53
2022/02/10 20:49:29;;;;;;;17.38;3.35;;;5.00;99.90;;;;;;4999410;28;20045;-52
2022/02/10 20:51:56;;;;;;;14.48;3.25;;;5.00;99.90;;;;;;5010032;28;20517;-50
2022/02/10 20:54:23;;;;;;;10.32;2.65;;;4.90;99.90;;;;;;5016927;28;20148;-51
2022/02/10 20:56:48;;;;;;;12.00;2.88;;;4.90;99.90;;;;;;5004657;28;20076;-51
2022/02/10 20:59:33;;;;;;;14.63;2.75;;;4.90;99.90;;;;;;5003227;28;20073;-54
2022/02/10 21:02:09;;;;;;;15.13;3.17;;;4.90;99.90;;;;;;4999069;28;20034;-49
2022/02/10 21:04:40;;;;;;;10.15;2.72;;;5.00;99.90;;;;;;5002583;28;20065;-47
2022/02/10 21:09:58;;;;;;;8.93;2.70;;;4.90;99.90;;;;;;5002371;28;20052;-50
2022/02/10 21:12:27;;;;;;;15.32;2.53;;;5.00;99.90;;;;;;5004081;28;20153;-47
2022/02/10 21:14:52;;;;;;;16.67;2.85;;;5.00;99.90;;;;;;5004947;28;20434;-50
2022/02/10 21:17:23;;;;;;;10.25;2.83;;;5.00;99.90;;;;;;5007042;28;20049;-48
2022/02/10 21:19:49;;;;;;;13.10;3.13;;;5.00;99.90;;;;;;5009324;28;20049;-51
2022/02/10 21:22:18;;;;;;;11.27;2.78;;;5.00;99.90;;;;;;5001721;28;20034;-47
2022/02/10 21:24:52;;;;;;;15.18;3.17;;;5.00;99.90;;;;;;5016347;28;20038;-47
2022/02/10 21:29:53;;;;;;;10.35;3.42;;;5.00;99.90;;;;;;5014265;28;20054;-47
2022/02/10 21:32:19;;;;;;;11.32;3.17;;;5.00;99.90;;;;;;5014238;28;20050;-48
2022/02/10 21:35:04;;;;;;;11.13;3.75;;;5.00;99.90;;;;;;5015681;28;20041;-48
2022/02/10 21:37:30;;;;;;;14.93;3.08;;;5.00;99.90;;;;;;5013165;28;20037;-47
2022/02/10 21:40:10;;;;;;;15.68;3.33;;;5.10;99.90;;;;;;5013773;28;20038;-48
2022/02/10 21:47:55;;;;;;;10.43;3.58;;;5.00;99.90;;;;;;5008427;28;20052;-50
2022/02/10 22:02:41;;;;;;;13.02;3.17;;;5.00;99.90;;;;;;5017272;28;20119;-48
2022/02/10 22:05:26;;;;;;;10.93;2.53;;;4.90;99.90;;;;;;5013673;28;20037;-47
2022/02/10 22:08:05;;;;;;;16.42;2.88;;;4.90;99.90;;;;;;5009455;28;20435;-49
2022/02/10 22:23:25;;;;;;;13.57;3.00;;;4.60;99.90;;;;;;5013328;28;20120;-49
2022/02/10 22:25:56;;;;;;;9.95;2.80;;;4.60;99.90;;;;;;5002809;28;20096;-47
2022/02/10 22:28:29;;;;;;;13.20;2.70;;;4.60;99.90;;;;;;5030956;28;20056;-47
2022/02/10 22:31:43;;;;;;;20.05;3.20;;;4.60;99.90;;;;;;5032955;28;20481;-49
2022/02/10 22:33:59;;;;;;;8.48;2.90;;;4.50;99.90;;;;;;5027521;28;20107;-47
2022/02/10 22:36:25;;;;;;;9.75;2.80;;;4.50;99.90;;;;;;5018315;28;20065;-48
2022/02/10 22:38:54;;;;;;;12.90;2.85;;;4.50;99.90;;;;;;5007810;28;20084;-47
2022/02/10 22:41:20;;;;;;;13.50;3.40;;;4.50;99.90;;;;;;5003911;28;20038;-49
2022/02/10 22:43:48;;;;;;;13.40;3.72;;;4.40;99.90;;;;;;4992058;28;20045;-47
2022/02/10 22:46:16;;;;;;;12.88;3.42;;;4.40;99.90;;;;;;4992406;28;20100;-51
2022/02/10 22:48:43;;;;;;;16.25;3.63;;;4.40;99.90;;;;;;5013330;28;20057;-50
2022/02/10 22:51:09;;;;;;;14.98;3.55;;;4.40;99.90;;;;;;5012184;28;20080;-50
2022/02/10 22:53:35;;;;;;;15.63;3.28;;;4.40;99.90;;;;;;5012580;28;20041;-47
2022/02/10 22:56:00;;;;;;;11.95;3.42;;;4.40;99.90;;;;;;4996675;28;20571;-50
2022/02/10 22:58:29;;;;;;;17.67;3.70;;;4.30;99.90;;;;;;5024748;22;20033;-51
2022/02/10 23:00:55;;;;;;;12.82;3.90;;;4.30;99.90;;;;;;5063973;28;20181;-51
2022/02/10 23:03:23;;;;;;;12.38;3.60;;;4.30;99.90;;;;;;5062981;28;20028;-50
2022/02/10 23:05:50;;;;;;;18.13;4.60;;;4.20;99.90;;;;;;5058098;28;20052;-51
2022/02/10 23:08:17;;;;;;;11.60;3.38;;;4.20;99.90;;;;;;5069800;28;20025;-50
2022/02/10 23:10:48;;;;;;;11.95;3.47;;;4.20;99.90;;;;;;5052818;28;20079;-50
2022/02/10 23:13:20;;;;;;;14.40;3.60;;;4.20;99.90;;;;;;5052873;28;20065;-53
2022/02/10 23:15:46;;;;;;;14.38;3.38;;;4.20;99.90;;;;;;5052902;28;20498;-52
2022/02/10 23:18:21;;;;;;;12.27;3.55;;;4.20;99.90;;;;;;5051045;28;20056;-54
2022/02/10 23:20:48;;;;;;;17.33;3.83;;;4.20;99.90;;;;;;5053578;28;20076;-50
2022/02/10 23:23:16;;;;;;;13.45;3.70;;;4.30;99.90;;;;;;5050800;28;20045;-51
2022/02/10 23:25:43;;;;;;;12.63;3.40;;;4.30;99.90;;;;;;5048834;28;20041;-53
2022/02/10 23:28:32;;;;;;;16.88;3.40;;;4.30;99.90;;;;;;5042667;28;20037;-51
2022/02/10 23:30:59;;;;;;;11.45;3.72;;;4.40;99.90;;;;;;5060281;28;20131;-54
2022/02/10 23:33:28;;;;;;;14.05;3.72;;;4.40;99.90;;;;;;5062446;28;20037;-53
2022/02/10 23:38:30;;;;;;;11.50;3.20;;;4.50;99.90;;;;;;5043879;28;20056;-53
2022/02/10 23:41:44;;;;;;;14.52;4.35;;;4.50;99.90;;;;;;5050760;28;20053;-53
2022/02/10 23:43:53;;;;;;;10.45;2.80;;;4.50;99.90;;;;;;5052157;28;20045;-51
2022/02/10 23:46:20;;;;;;;10.43;3.15;;;4.50;99.90;;;;;;5066480;28;20518;-54
2022/02/10 23:48:46;;;;;;;14.77;3.20;;;4.50;99.90;;;;;;5052295;28;20040;-54
2022/02/10 23:51:12;;;;;;;12.70;3.47;;;4.40;99.90;;;;;;5052301;28;20044;-53
2022/02/10 23:53:38;;;;;;;8.63;3.28;;;4.50;99.90;;;;;;5051972;28;20051;-53
2022/02/10 23:56:09;;;;;;;16.52;3.22;;;4.40;99.90;;;;;;5050856;28;20152;-50
2022/02/10 23:58:47;;;;;;;10.70;3.17;;;4.50;99.90;;;;;;5063681;28;20495;-53
